Time;durP1;ratioP1;P1;durP2;ratioP2;P2;SDS_P1;SDS_P2;PMS_P1;PMS_P2;Temp;Humidity;BMP_temperature;BMP_pressure;BME280_temperature;BME280_humidity;BME280_pressure;Samples;Min_cycle;Max_cycle;Signal;HPM_P1;HPM_P2
2021/08/19 00:00:46;;;;;;;3.27;1.10;;;;;;;14.40;87.24;96693.56;2597645;31;20983;-76
2021/08/19 00:03:19;;;;;;;3.30;1.00;;;;;;;14.46;87.36;96694.88;2596159;54;21298;-76
2021/08/19 00:05:48;;;;;;;1.23;0.83;;;;;;;14.49;86.87;96691.16;2595638;36;21252;-76
2021/08/19 00:08:18;;;;;;;2.60;0.93;;;;;;;14.42;87.41;96683.75;2595344;54;21197;-76
2021/08/19 00:10:48;;;;;;;2.90;1.03;;;;;;;14.41;87.36;96683.91;2594778;36;20870;-75
2021/08/19 00:13:18;;;;;;;1.47;0.80;;;;;;;14.48;86.84;96690.31;2594961;54;20446;-76
2021/08/19 00:15:50;;;;;;;4.17;1.40;;;;;;;14.49;87.16;96689.38;2594104;36;20779;-76
2021/08/19 00:18:22;;;;;;;1.10;0.83;;;;;;;14.54;87.40;96686.34;2593467;54;20969;-77
2021/08/19 00:20:52;;;;;;;0.90;0.73;;;;;;;14.56;87.01;96687.94;2596909;36;20438;-75
2021/08/19 00:23:22;;;;;;;1.33;0.90;;;;;;;14.50;87.36;96682.28;2595181;39;20755;-75
2021/08/19 00:25:52;;;;;;;1.70;1.00;;;;;;;14.48;87.02;96671.03;2594077;36;20422;-75
2021/08/19 00:28:22;;;;;;;3.00;1.00;;;;;;;14.49;86.81;96680.63;2593762;54;20383;-74
2021/08/19 00:30:52;;;;;;;0.90;0.77;;;;;;;14.51;86.93;96678.69;2593676;36;20934;-74
2021/08/19 00:33:25;;;;;;;5.80;0.90;;;;;;;14.48;87.39;96678.94;2593949;54;20480;-74
2021/08/19 00:35:54;;;;;;;2.60;1.40;;;;;;;14.49;86.59;96670.91;2597216;36;20781;-74
2021/08/19 00:38:25;;;;;;;1.87;1.20;;;;;;;14.53;86.92;96677.59;2594689;54;20422;-73
2021/08/19 00:40:55;;;;;;;2.10;1.10;;;;;;;14.50;87.33;96680.47;2595018;36;20450;-73
2021/08/19 00:43:25;;;;;;;1.40;1.20;;;;;;;14.44;87.26;96673.09;2593775;54;20450;-74
2021/08/19 00:45:55;;;;;;;2.47;1.20;;;;;;;14.44;86.89;96673.94;2593865;31;20867;-73
2021/08/19 00:48:27;;;;;;;2.00;1.13;;;;;;;14.39;87.20;96655.03;2594209;54;20379;-74
2021/08/19 00:50:57;;;;;;;1.53;1.10;;;;;;;14.44;87.04;96667.81;2594811;36;21242;-72
2021/08/19 00:53:27;;;;;;;1.53;1.23;;;;;;;14.45;87.17;96666.88;2594177;54;20442;-74
2021/08/19 00:55:57;;;;;;;3.30;1.50;;;;;;;14.36;87.40;96665.81;2594148;36;20504;-74
2021/08/19 00:58:26;;;;;;;1.60;1.40;;;;;;;14.40;87.40;96661.13;2593924;54;20887;-74
2021/08/19 01:00:56;;;;;;;3.07;1.50;;;;;;;14.39;86.74;96664.75;2594437;36;20418;-73
2021/08/19 01:03:29;;;;;;;4.87;1.60;;;;;;;14.43;87.09;96663.53;2595537;39;20740;-73
2021/08/19 01:05:59;;;;;;;6.30;1.87;;;;;;;14.39;87.05;96657.66;2595722;36;21087;-73
2021/08/19 01:08:29;;;;;;;2.37;1.80;;;;;;;14.38;87.36;96656.00;2595848;46;20438;-73
2021/08/19 01:10:59;;;;;;;3.30;1.60;;;;;;;14.40;86.76;96655.88;2595258;36;20451;-73
2021/08/19 01:13:29;;;;;;;2.70;1.97;;;;;;;14.44;87.12;96663.41;2594761;54;21182;-73
2021/08/19 01:15:59;;;;;;;2.70;1.70;;;;;;;14.41;86.74;96654.91;2593931;36;20430;-72
2021/08/19 01:18:40;;;;;;;2.33;1.73;;;;;;;14.44;86.99;96660.78;2595334;51;20446;-74
2021/08/19 01:21:11;;;;;;;1.70;1.60;;;;;;;14.33;86.96;96652.91;2559546;54;2004859;-73
2021/08/19 01:23:41;;;;;;;2.53;1.77;;;;;;;14.37;87.21;96662.25;2597018;36;21254;-73
2021/08/19 01:26:15;;;;;;;2.20;1.30;;;;;;;14.40;87.13;96658.50;2595724;39;20774;-72
2021/08/19 01:28:48;;;;;;;4.57;1.70;;;;;;;14.32;87.33;96661.78;2595408;36;20418;-73
2021/08/19 01:31:20;;;;;;;3.33;1.80;;;;;;;14.38;87.16;96665.69;2596027;54;21270;-73
2021/08/19 01:33:51;;;;;;;2.10;1.43;;;;;;;14.40;86.72;96659.31;2595839;36;21183;-74
2021/08/19 01:36:22;;;;;;;4.83;1.50;;;;;;;14.37;86.63;96656.97;2593900;54;21239;-74
2021/08/19 01:38:53;;;;;;;2.10;1.83;;;;;;;14.27;87.41;96653.44;2595541;36;20918;-74
2021/08/19 01:41:24;;;;;;;2.70;1.50;;;;;;;14.35;86.72;96656.25;2597132;54;20867;-76
2021/08/19 01:43:56;;;;;;;11.20;1.80;;;;;;;14.28;87.27;96660.34;2594737;36;20418;-72
2021/08/19 01:46:26;;;;;;;3.07;2.10;;;;;;;14.32;86.70;96659.13;2595289;54;20375;-73
2021/08/19 01:48:56;;;;;;;3.27;1.93;;;;;;;14.30;86.71;96655.78;2594877;36;20470;-75
2021/08/19 01:51:28;;;;;;;7.70;1.87;;;;;;;14.31;86.36;96654.00;2594856;39;20454;-74
2021/08/19 01:53:58;;;;;;;2.87;2.20;;;;;;;14.27;86.71;96661.34;2595470;36;20419;-75
2021/08/19 01:56:28;;;;;;;3.43;1.83;;;;;;;14.30;86.41;96658.44;2596368;54;20426;-74
2021/08/19 01:59:00;;;;;;;3.17;2.07;;;;;;;14.32;86.71;96660.94;2595787;31;20407;-74
2021/08/19 02:01:30;;;;;;;2.53;2.00;;;;;;;14.34;86.66;96657.22;2594253;47;20422;-74
2021/08/19 02:04:01;;;;;;;2.67;2.03;;;;;;;14.29;86.29;96655.91;2595693;36;20524;-74
2021/08/19 02:06:31;;;;;;;2.50;1.93;;;;;;;14.32;86.30;96653.88;2595569;54;20930;-74
2021/08/19 02:09:02;;;;;;;5.63;2.40;;;;;;;14.19;86.27;96627.72;2595826;36;20457;-73
2021/08/19 02:11:38;;;;;;;3.10;2.00;;;;;;;14.28;86.35;96651.63;2596503;47;20423;-72
2021/08/19 02:14:11;;;;;;;2.60;1.93;;;;;;;14.29;86.33;96648.88;2596396;36;20541;-72
2021/08/19 02:16:41;;;;;;;4.90;1.90;;;;;;;14.25;87.08;96652.72;2596028;54;20439;-73
2021/08/19 02:19:11;;;;;;;4.20;2.23;;;;;;;14.22;86.73;96642.44;2594829;36;20847;-73
2021/08/19 02:21:40;;;;;;;2.20;1.70;;;;;;;14.23;86.94;96646.75;2596159;54;20435;-73
2021/08/19 02:24:10;;;;;;;5.53;2.57;;;;;;;14.26;87.10;96641.22;2596204;31;21387;-74
2021/08/19 02:26:40;;;;;;;3.00;2.00;;;;;;;14.24;86.64;96651.88;2596305;54;20950;-73
2021/08/19 02:29:13;;;;;;;3.67;1.83;;;;;;;14.23;86.94;96644.13;2595462;36;20450;-74
2021/08/19 02:31:43;;;;;;;4.10;1.73;;;;;;;14.21;87.02;96646.00;2595879;54;20462;-74
2021/08/19 02:34:13;;;;;;;2.40;2.10;;;;;;;14.13;86.56;96636.13;2598501;36;20435;-73
2021/08/19 02:36:43;;;;;;;3.40;2.27;;;;;;;14.19;87.10;96640.91;2597151;54;20430;-74
2021/08/19 02:39:12;;;;;;;2.83;2.00;;;;;;;14.19;86.87;96643.53;2596606;36;20430;-74
2021/08/19 02:41:43;;;;;;;2.10;1.73;;;;;;;14.13;86.65;96624.75;2598427;54;20450;-74
2021/08/19 02:44:16;;;;;;;3.80;2.00;;;;;;;14.14;86.64;96637.78;2596350;36;20419;-73
2021/08/19 02:46:45;;;;;;;3.20;2.13;;;;;;;14.11;86.98;96627.50;2597047;54;20415;-74
2021/08/19 02:49:15;;;;;;;3.60;2.00;;;;;;;14.11;86.89;96632.78;2596465;31;20414;-73
2021/08/19 02:51:45;;;;;;;1.87;1.77;;;;;;;14.21;86.78;96632.84;2596648;54;20437;-73
2021/08/19 02:54:15;;;;;;;4.80;2.87;;;;;;;14.20;86.87;96628.56;2597475;31;20439;-75
2021/08/19 02:56:49;;;;;;;4.57;2.50;;;;;;;14.17;87.35;96621.75;2598509;54;20894;-74
2021/08/19 02:59:22;;;;;;;4.10;2.37;;;;;;;14.18;87.37;96630.47;2599034;36;20936;-73
2021/08/19 03:01:52;;;;;;;3.27;2.50;;;;;;;14.13;87.12;96624.75;2598203;54;20486;-74
2021/08/19 03:04:22;;;;;;;3.47;2.43;;;;;;;14.14;87.13;96626.44;2598142;36;20445;-74
2021/08/19 03:06:52;;;;;;;2.37;2.13;;;;;;;14.19;86.72;96626.88;2597675;39;20732;-74
2021/08/19 03:09:22;;;;;;;2.80;1.67;;;;;;;14.18;86.29;96620.78;2598072;31;20446;-74
2021/08/19 03:11:52;;;;;;;4.73;2.10;;;;;;;14.20;85.64;96620.66;2595277;47;20470;-73
2021/08/19 03:14:24;;;;;;;2.60;2.37;;;;;;;14.14;86.82;96616.72;2594142;36;20426;-74
2021/08/19 03:16:54;;;;;;;4.17;2.20;;;;;;;14.12;87.25;96615.19;2594638;54;20970;-74
2021/08/19 03:19:24;;;;;;;4.90;2.87;;;;;;;14.17;86.54;96619.13;2594595;36;21172;-75
2021/08/19 03:21:54;;;;;;;6.53;2.30;;;;;;;14.17;86.60;96620.91;2595579;54;20947;-74
2021/08/19 03:24:24;;;;;;;2.73;2.07;;;;;;;14.17;86.99;96626.16;2594022;36;20526;-74
2021/08/19 03:26:56;;;;;;;3.53;2.13;;;;;;;14.14;86.99;96627.25;2595444;54;20414;-73
2021/08/19 03:29:29;;;;;;;2.33;1.90;;;;;;;14.09;87.01;96623.34;2595129;36;20786;-72
2021/08/19 03:31:59;;;;;;;4.33;2.30;;;;;;;14.16;86.60;96629.78;2594996;39;21134;-74
2021/08/19 03:34:29;;;;;;;3.20;2.50;;;;;;;14.16;86.85;96629.78;2595874;36;20434;-73
2021/08/19 03:36:59;;;;;;;3.80;2.23;;;;;;;14.15;86.44;96623.69;2595095;54;20463;-73
2021/08/19 03:39:30;;;;;;;4.73;3.30;;;;;;;14.16;85.97;96627.13;2595960;36;20854;-73
2021/08/19 03:41:59;;;;;;;3.97;2.40;;;;;;;14.16;85.16;96624.50;2596424;54;20418;-73
2021/08/19 03:44:34;;;;;;;3.23;2.33;;;;;;;14.16;86.19;96627.97;2595877;36;20426;-73
2021/08/19 03:47:05;;;;;;;3.00;2.37;;;;;;;14.19;86.01;96632.13;2596887;54;20419;-73
2021/08/19 03:49:35;;;;;;;2.50;2.30;;;;;;;14.24;85.17;96624.69;2595311;31;20447;-74
2021/08/19 03:52:06;;;;;;;2.50;2.03;;;;;;;14.14;84.92;96615.91;2594795;54;20429;-72
2021/08/19 03:54:36;;;;;;;2.30;1.50;;;;;;;14.23;84.12;96633.59;2594255;36;20435;-72
2021/08/19 03:57:07;;;;;;;2.70;1.73;;;;;;;14.19;84.34;96625.09;2594374;54;20990;-72
2021/08/19 03:59:40;;;;;;;2.23;1.73;;;;;;;14.24;84.56;96622.91;2594737;31;20953;-74
2021/08/19 04:02:10;;;;;;;3.10;1.97;;;;;;;14.24;84.40;96622.06;2594924;39;20462;-73
2021/08/19 04:04:40;;;;;;;3.10;1.73;;;;;;;14.27;84.72;96624.47;2594299;36;20799;-74
2021/08/19 04:07:10;;;;;;;2.57;2.20;;;;;;;14.23;84.31;96620.41;2596237;54;20434;-73
2021/08/19 04:09:40;;;;;;;4.87;2.00;;;;;;;14.22;84.76;96619.56;2596008;36;20902;-73
2021/08/19 04:12:10;;;;;;;5.63;2.07;;;;;;;14.17;84.88;96610.34;2595001;47;20525;-74
2021/08/19 04:14:43;;;;;;;2.97;1.70;;;;;;;14.18;85.45;96622.59;2596251;36;20937;-74
2021/08/19 04:17:12;;;;;;;2.30;1.70;;;;;;;14.13;85.59;96615.06;2595421;39;20798;-74
2021/08/19 04:19:42;;;;;;;3.00;1.83;;;;;;;14.14;85.74;96621.16;2595350;36;20407;-74
2021/08/19 04:22:12;;;;;;;2.40;1.80;;;;;;;14.12;86.31;96609.94;2594661;54;20937;-74
2021/08/19 04:24:42;;;;;;;2.17;1.53;;;;;;;14.13;86.31;96617.72;2594445;36;20427;-73
2021/08/19 04:27:12;;;;;;;1.90;1.70;;;;;;;14.07;86.40;96612.91;2595564;39;20827;-74
2021/08/19 04:29:45;;;;;;;3.30;1.67;;;;;;;14.09;86.27;96602.28;2596847;36;20422;-73
2021/08/19 04:32:19;;;;;;;2.33;1.50;;;;;;;14.07;86.79;96605.03;2597163;54;20913;-74
2021/08/19 04:34:52;;;;;;;1.63;1.40;;;;;;;13.99;86.12;96586.41;2595893;36;20415;-74
2021/08/19 04:37:21;;;;;;;2.10;1.50;;;;;;;14.09;86.17;96592.56;2595419;39;20744;-74
2021/08/19 04:39:51;;;;;;;2.33;1.47;;;;;;;14.01;86.44;96585.31;2593884;36;20953;-74
2021/08/19 04:42:23;;;;;;;3.47;1.70;;;;;;;14.09;85.87;96591.72;2594265;54;20989;-75
2021/08/19 04:44:56;;;;;;;1.80;1.47;;;;;;;14.13;85.05;96594.00;2594055;36;20784;-75
2021/08/19 04:47:26;;;;;;;1.70;1.40;;;;;;;14.18;84.75;96596.25;2594645;54;20378;-75
2021/08/19 04:49:58;;;;;;;4.07;1.70;;;;;;;14.21;84.44;96602.09;2594923;36;20431;-75
2021/08/19 04:52:28;;;;;;;5.30;1.53;;;;;;;14.30;83.75;96610.19;2595045;54;20445;-75
2021/08/19 04:54:58;;;;;;;7.13;1.97;;;;;;;14.31;84.06;96609.22;2595383;31;20430;-75
2021/08/19 04:57:28;;;;;;;2.13;1.77;;;;;;;14.34;84.35;96606.34;2594062;54;20466;-75
2021/08/19 05:00:00;;;;;;;7.40;2.00;;;;;;;14.37;84.08;96620.09;2595530;36;20418;-75
2021/08/19 05:02:31;;;;;;;2.67;1.43;;;;;;;14.40;84.01;96622.44;2596689;54;20415;-75
2021/08/19 05:05:02;;;;;;;2.50;1.93;;;;;;;14.43;84.31;96624.84;2599826;36;20861;-74
2021/08/19 05:07:31;;;;;;;2.57;1.60;;;;;;;14.46;84.05;96628.19;2594321;54;20450;-74
2021/08/19 05:10:01;;;;;;;3.60;2.07;;;;;;;14.52;84.13;96630.28;2594129;36;20411;-74
2021/08/19 05:12:31;;;;;;;2.23;1.43;;;;;;;14.59;84.45;96626.22;2594485;54;20415;-74
2021/08/19 05:15:04;;;;;;;1.50;1.20;;;;;;;14.66;84.41;96629.97;2595604;36;20791;-74
2021/08/19 05:17:34;;;;;;;1.83;1.60;;;;;;;14.74;84.08;96627.56;2597509;54;20559;-74
2021/08/19 05:20:04;;;;;;;3.73;1.33;;;;;;;14.74;83.96;96629.34;2596860;36;20530;-75
2021/08/19 05:22:34;;;;;;;3.20;1.37;;;;;;;14.82;82.92;96638.28;2596326;54;20379;-75
2021/08/19 05:25:04;;;;;;;2.40;1.40;;;;;;;14.86;83.38;96640.63;2595479;36;20764;-73
2021/08/19 05:27:34;;;;;;;2.13;1.13;;;;;;;14.87;83.13;96643.16;2596657;54;20406;-74
2021/08/19 05:30:08;;;;;;;2.00;1.27;;;;;;;14.88;82.77;96646.59;2597510;31;20824;-74
2021/08/19 05:32:38;;;;;;;2.40;1.40;;;;;;;14.80;82.81;96648.13;2599872;54;20445;-73
2021/08/19 05:35:09;;;;;;;1.60;1.40;;;;;;;14.84;82.54;96640.78;2605319;36;20419;-74
2021/08/19 05:37:39;;;;;;;6.67;1.57;;;;;;;14.85;81.87;96644.25;2594606;39;20795;-75
2021/08/19 05:40:10;;;;;;;3.23;1.57;;;;;;;14.90;81.91;96640.25;2594607;36;20541;-74
2021/08/19 05:42:40;;;;;;;5.10;1.87;;;;;;;14.96;81.54;96641.53;2594165;54;21013;-75
2021/08/19 05:45:13;;;;;;;7.10;1.10;;;;;;;15.08;80.62;96642.28;2595017;36;20418;-75
2021/08/19 05:47:43;;;;;;;1.73;1.17;;;;;;;15.15;80.95;96646.91;2595412;54;20999;-74
2021/08/19 05:50:13;;;;;;;1.97;1.50;;;;;;;15.27;80.15;96645.00;2595215;36;21079;-75
2021/08/19 05:52:44;;;;;;;2.27;1.33;;;;;;;15.30;80.03;96646.53;2601532;39;21105;-75
2021/08/19 05:55:14;;;;;;;1.47;1.13;;;;;;;15.36;78.34;96643.34;2596115;36;20458;-75
2021/08/19 05:57:44;;;;;;;5.63;2.30;;;;;;;15.35;79.24;96639.88;2596654;54;20496;-75
2021/08/19 06:00:21;;;;;;;2.90;1.17;;;;;;;15.41;79.03;96647.25;2597677;36;21021;-74
2021/08/19 06:02:52;;;;;;;4.20;1.57;;;;;;;15.50;79.01;96647.41;2595654;54;20386;-74
2021/08/19 06:05:23;;;;;;;1.90;1.30;;;;;;;15.67;78.55;96645.94;2607632;36;20824;-74
2021/08/19 06:07:53;;;;;;;5.30;2.07;;;;;;;15.65;77.79;96648.72;2599467;54;20425;-73
2021/08/19 06:10:23;;;;;;;2.20;1.63;;;;;;;15.62;77.32;96643.69;2597280;36;20754;-73
2021/08/19 06:12:53;;;;;;;3.30;1.83;;;;;;;15.74;76.88;96649.72;2594438;39;20760;-74
2021/08/19 06:15:26;;;;;;;2.90;1.47;;;;;;;15.85;77.26;96652.25;2595766;36;21052;-73
2021/08/19 06:17:56;;;;;;;6.80;1.80;;;;;;;15.98;76.58;96652.00;2595576;54;20403;-73
2021/08/19 06:20:26;;;;;;;3.10;1.50;;;;;;;16.12;76.37;96648.09;2595166;36;20449;-73
2021/08/19 06:22:56;;;;;;;1.63;1.50;;;;;;;16.12;75.66;96630.44;2594487;54;20435;-73
2021/08/19 06:25:26;;;;;;;3.17;1.43;;;;;;;16.27;76.03;96643.22;2594335;36;20863;-73
2021/08/19 06:27:56;;;;;;;11.73;1.67;;;;;;;16.21;75.00;96647.28;2595646;54;20898;-73
2021/08/19 06:30:28;;;;;;;9.77;4.83;;;;;;;15.96;75.63;96640.72;2594749;36;20969;-73
2021/08/19 06:32:58;;;;;;;4.27;2.57;;;;;;;15.91;76.10;96654.34;2594973;39;20770;-73
2021/08/19 06:35:28;;;;;;;2.33;1.20;;;;;;;15.98;76.22;96659.91;2594998;31;20902;-73
2021/08/19 06:37:58;;;;;;;1.60;1.17;;;;;;;16.06;75.96;96660.06;2595221;54;20419;-73
2021/08/19 06:40:28;;;;;;;4.03;1.30;;;;;;;16.14;76.32;96656.72;2595227;36;20411;-73
2021/08/19 06:42:58;;;;;;;2.60;1.20;;;;;;;16.28;75.17;96653.66;2596404;54;20430;-72
2021/08/19 06:45:31;;;;;;;1.97;1.40;;;;;;;16.35;74.69;96653.94;2596359;31;20766;-73
2021/08/19 06:48:00;;;;;;;5.90;1.67;;;;;;;16.36;74.71;96656.44;2595755;54;20387;-72
2021/08/19 06:50:30;;;;;;;2.97;1.70;;;;;;;16.53;74.01;96654.06;2606526;36;20880;-74
2021/08/19 06:53:00;;;;;;;9.33;2.80;;;;;;;16.54;74.17;96647.78;2594885;54;20410;-73
2021/08/19 06:55:35;;;;;;;2.60;1.30;;;;;;;16.69;74.22;96653.47;2593477;36;20414;-73
2021/08/19 06:58:04;;;;;;;2.07;1.80;;;;;;;16.79;72.82;96649.00;2594571;46;20466;-72
2021/08/19 07:00:37;;;;;;;1.37;1.10;;;;;;;16.83;73.20;96652.22;2594146;36;20921;-73
2021/08/19 07:03:07;;;;;;;3.93;1.70;;;;;;;16.70;73.36;96658.63;2593957;47;20430;-73
2021/08/19 07:05:38;;;;;;;5.23;1.83;;;;;;;16.77;73.28;96654.41;2594316;36;20474;-73
2021/08/19 07:08:08;;;;;;;8.43;3.20;;;;;;;16.94;72.81;96657.34;2594408;39;20723;-73
2021/08/19 07:10:38;;;;;;;10.07;5.47;;;;;;;16.85;72.55;96653.75;2594167;36;20850;-72
2021/08/19 07:13:08;;;;;;;4.10;1.40;;;;;;;16.90;72.92;96648.03;2594153;54;20467;-73
2021/08/19 07:15:42;;;;;;;2.63;1.27;;;;;;;16.64;73.24;96656.56;2594185;36;20959;-73
2021/08/19 07:18:11;;;;;;;3.30;1.60;;;;;;;16.72;72.76;96659.31;2594876;54;20415;-73
2021/08/19 07:20:41;;;;;;;2.57;1.10;;;;;;;16.68;73.56;96663.22;2595727;36;20450;-73
2021/08/19 07:23:11;;;;;;;2.07;1.30;;;;;;;16.82;73.08;96659.34;2595358;54;20419;-73
2021/08/19 07:25:42;;;;;;;2.90;1.30;;;;;;;16.77;73.37;96658.88;2595516;36;20549;-72
2021/08/19 07:28:11;;;;;;;4.23;1.20;;;;;;;17.06;72.87;96655.38;2595397;54;20438;-73
2021/08/19 07:30:44;;;;;;;1.27;1.17;;;;;;;17.17;72.00;96658.66;2595976;36;20423;-73
2021/08/19 07:33:17;;;;;;;2.97;1.17;;;;;;;17.02;72.29;96659.28;2598348;39;21064;-72
2021/08/19 07:35:49;;;;;;;1.93;1.17;;;;;;;17.04;72.41;96663.44;2597711;36;21088;-74
2021/08/19 07:38:20;;;;;;;1.53;1.20;;;;;;;17.05;72.02;96657.16;2597272;54;20375;-73
2021/08/19 07:40:50;;;;;;;2.50;1.30;;;;;;;16.96;72.14;96660.69;2596035;36;20414;-73
2021/08/19 07:43:20;;;;;;;1.50;1.10;;;;;;;17.08;71.71;96666.63;2596638;54;20414;-72
2021/08/19 07:45:53;;;;;;;1.50;1.20;;;;;;;17.24;71.21;96666.03;2595908;36;20434;-72
2021/08/19 07:48:23;;;;;;;1.77;1.13;;;;;;;17.18;70.96;96668.25;2595953;54;20415;-74
2021/08/19 07:50:52;;;;;;;1.23;1.10;;;;;;;17.24;70.29;96666.03;2595235;36;20950;-73
2021/08/19 07:53:22;;;;;;;2.33;1.40;;;;;;;17.28;70.05;96667.41;2595594;54;20415;-74
2021/08/19 07:55:52;;;;;;;3.13;1.43;;;;;;;17.74;68.67;96658.53;2598123;36;20987;-73
2021/08/19 07:58:22;;;;;;;1.43;1.00;;;;;;;17.59;69.33;96652.06;2598246;54;20455;-73
2021/08/19 08:00:56;;;;;;;3.73;1.17;;;;;;;17.59;68.51;96665.31;2596536;36;20916;-73
2021/08/19 08:03:26;;;;;;;1.47;1.17;;;;;;;17.77;68.55;96654.75;2599305;54;20442;-74
2021/08/19 08:05:56;;;;;;;2.90;1.50;;;;;;;18.24;67.29;96654.56;2595267;36;20418;-73
2021/08/19 08:08:26;;;;;;;1.93;1.30;;;;;;;18.41;66.93;96652.09;2596187;54;20423;-74
2021/08/19 08:10:55;;;;;;;3.00;1.37;;;;;;;18.75;66.53;96668.91;2595847;36;20438;-74
2021/08/19 08:13:25;;;;;;;2.03;1.03;;;;;;;18.26;67.14;96672.97;2595953;54;20991;-73
2021/08/19 08:15:58;;;;;;;11.00;2.07;;;;;;;18.33;68.29;96664.28;2595849;36;20981;-74
2021/08/19 08:18:28;;;;;;;1.90;1.40;;;;;;;18.53;67.28;96670.22;2594936;54;21061;-74
2021/08/19 08:20:57;;;;;;;4.23;1.40;;;;;;;17.85;69.02;96661.97;2594786;36;20919;-74
2021/08/19 08:23:32;;;;;;;10.83;1.57;;;;;;;17.79;69.88;96676.63;2596120;54;20414;-72
2021/08/19 08:26:02;;;;;;;14.20;5.67;;;;;;;18.30;69.13;96680.47;2559356;54;2004215;-74
2021/08/19 08:28:36;;;;;;;3.37;1.40;;;;;;;17.80;68.69;96673.00;2594996;31;20422;-74
2021/08/19 08:31:09;;;;;;;3.23;1.50;;;;;;;17.74;70.54;96666.47;2595409;54;20415;-74
2021/08/19 08:33:39;;;;;;;6.10;1.50;;;;;;;17.68;69.98;96675.00;2595765;36;20851;-74
2021/08/19 08:36:09;;;;;;;2.67;1.20;;;;;;;17.76;69.58;96676.94;2596074;54;20953;-74
2021/08/19 08:38:39;;;;;;;3.63;1.23;;;;;;;17.25;71.03;96673.81;2594593;36;21222;-73
2021/08/19 08:41:10;;;;;;;1.30;1.07;;;;;;;17.63;70.15;96685.19;2594654;39;20851;-74
2021/08/19 08:43:40;;;;;;;3.20;1.30;;;;;;;17.36;70.34;96678.09;2595356;36;20878;-73
2021/08/19 08:46:14;;;;;;;2.40;1.20;;;;;;;17.89;68.40;96677.41;2595192;39;20947;-75
2021/08/19 08:48:45;;;;;;;5.27;1.10;;;;;;;18.50;67.06;96667.06;2595387;36;20456;-74
2021/08/19 08:51:15;;;;;;;2.40;1.07;;;;;;;18.77;66.44;96671.41;2595232;54;20390;-74
2021/08/19 08:53:45;;;;;;;1.77;1.30;;;;;;;19.38;63.82;96666.97;2594922;36;21350;-74
2021/08/19 08:56:25;;;;;;;1.67;1.33;;;;;;;19.20;63.74;96663.59;2594860;39;20848;-74
2021/08/19 08:58:55;;;;;;;2.20;1.30;;;;;;;19.21;63.52;96663.44;2594562;36;20445;-74
2021/08/19 09:01:28;;;;;;;1.73;1.47;;;;;;;19.10;63.51;96661.88;2596264;54;20411;-73
2021/08/19 09:03:58;;;;;;;2.70;1.30;;;;;;;19.12;64.50;96664.38;2595806;36;20437;-74
2021/08/19 09:06:38;;;;;;;2.47;1.10;;;;;;;19.24;62.61;96662.28;2596320;54;20518;-73
2021/08/19 09:09:16;;;;;;;2.63;1.00;;;;;;;19.51;61.66;96661.25;2595064;36;20418;-74
2021/08/19 09:11:47;;;;;;;3.07;1.23;;;;;;;19.36;61.01;96658.34;2595845;39;20964;-74
2021/08/19 09:14:18;;;;;;;1.60;0.90;;;;;;;20.65;57.64;96666.00;2595017;36;21366;-75
2021/08/19 09:16:51;;;;;;;4.47;1.20;;;;;;;20.40;58.14;96659.81;2595600;54;20434;-75
2021/08/19 09:19:24;;;;;;;1.93;0.97;;;;;;;19.95;59.49;96663.72;2594883;36;20541;-74
2021/08/19 09:21:56;;;;;;;1.80;1.13;;;;;;;20.58;57.48;96666.78;2596091;54;20910;-74
2021/08/19 09:24:28;;;;;;;2.90;1.17;;;;;;;20.29;57.60;96668.94;2595244;36;20744;-73
2021/08/19 09:27:11;;;;;;;2.03;1.00;;;;;;;19.89;59.21;96659.06;2594648;54;20430;-74
2021/08/19 09:29:41;;;;;;;1.77;1.10;;;;;;;19.59;60.04;96666.59;2594590;36;20426;-73
2021/08/19 09:32:15;;;;;;;1.60;1.10;;;;;;;19.74;58.73;96661.53;2595222;39;20741;-74
2021/08/19 09:34:48;;;;;;;1.37;0.90;;;;;;;19.80;59.77;96652.06;2595708;36;21138;-74
2021/08/19 09:37:20;;;;;;;1.77;1.37;;;;;;;20.05;58.88;96659.13;2593651;47;20403;-73
2021/08/19 09:39:56;;;;;;;3.13;1.30;;;;;;;19.99;58.38;96653.59;2594379;36;20902;-73
2021/08/19 09:42:37;;;;;;;1.53;1.30;;;;;;;19.42;59.74;96647.09;2593597;39;20715;-74
2021/08/19 09:45:19;;;;;;;2.77;1.40;;;;;;;19.72;59.70;96652.91;2593582;36;20730;-73
2021/08/19 09:47:52;;;;;;;2.03;0.93;;;;;;;20.02;59.17;96658.63;2594553;54;20989;-74
2021/08/19 09:50:24;;;;;;;1.97;1.37;;;;;;;19.89;58.01;96659.88;2594042;31;20410;-74
2021/08/19 09:52:55;;;;;;;2.80;1.50;;;;;;;19.94;59.12;96657.59;2593986;54;20418;-73
2021/08/19 09:55:27;;;;;;;2.63;1.23;;;;;;;19.82;59.15;96656.25;2594249;36;20443;-74
2021/08/19 09:57:58;;;;;;;3.00;1.40;;;;;;;19.52;58.87;96658.44;2596667;54;20383;-73
2021/08/19 10:00:30;;;;;;;1.77;1.33;;;;;;;19.44;59.64;96658.38;2593937;36;20455;-74
2021/08/19 10:03:03;;;;;;;1.47;1.20;;;;;;;20.22;58.53;96657.31;2594487;54;20466;-74
2021/08/19 10:05:33;;;;;;;1.20;1.00;;;;;;;20.50;57.36;96638.38;2596160;36;20473;-74
2021/08/19 10:08:03;;;;;;;2.40;1.10;;;;;;;19.99;59.02;96646.47;2595344;54;20426;-73
2021/08/19 10:10:33;;;;;;;2.80;1.37;;;;;;;20.15;58.73;96638.53;2595563;36;20905;-74
2021/08/19 10:13:05;;;;;;;1.50;1.13;;;;;;;20.39;57.22;96639.53;2596305;54;21276;-73
2021/08/19 10:15:38;;;;;;;1.37;1.10;;;;;;;20.39;57.31;96646.69;2594825;31;20764;-73
2021/08/19 10:18:15;;;;;;;1.47;1.07;;;;;;;20.51;57.11;96645.38;2594721;51;20442;-74
2021/08/19 10:20:48;;;;;;;3.63;1.47;;;;;;;20.30;56.58;96638.69;2595057;36;20453;-74
2021/08/19 10:23:18;;;;;;;1.80;1.10;;;;;;;20.14;57.66;96644.81;2594584;54;20463;-74
2021/08/19 10:25:48;;;;;;;2.13;1.00;;;;;;;19.97;58.04;96642.31;2596846;31;20446;-73
2021/08/19 10:28:19;;;;;;;1.10;1.00;;;;;;;20.09;57.99;96641.00;2597029;54;20461;-73
2021/08/19 10:30:51;;;;;;;2.10;1.07;;;;;;;20.12;58.39;96646.00;2594458;36;20454;-74
2021/08/19 10:33:48;;;;;;;1.03;0.93;;;;;;;19.88;58.06;96639.66;2594671;39;20766;-73
2021/08/19 10:36:49;;;;;;;1.40;1.03;;;;;;;20.08;57.47;96640.16;2558769;54;2004963;-74
2021/08/19 10:39:35;;;;;;;1.30;1.00;;;;;;;20.33;57.22;96635.72;2595094;36;20410;-73
2021/08/19 10:42:05;;;;;;;2.33;1.10;;;;;;;20.92;56.83;96632.88;2595847;54;21001;-74
2021/08/19 10:44:36;;;;;;;1.83;1.17;;;;;;;21.07;54.33;96640.16;2595443;36;20410;-73
2021/08/19 10:47:08;;;;;;;2.00;1.27;;;;;;;20.61;56.06;96639.91;2595459;54;20414;-74
2021/08/19 10:49:44;;;;;;;4.37;1.10;;;;;;;20.97;55.54;96635.00;2596175;31;20768;-73
2021/08/19 10:52:32;;;;;;;1.80;1.23;;;;;;;21.08;55.90;96641.81;2594587;47;20437;-74
2021/08/19 10:55:23;;;;;;;1.30;1.00;;;;;;;21.11;55.11;96636.16;2595314;36;20970;-74
2021/08/19 10:57:57;;;;;;;3.00;1.30;;;;;;;21.79;54.69;96634.75;2595099;54;20949;-74
2021/08/19 11:00:43;;;;;;;39.33;21.97;;;;;;;22.07;51.48;96629.75;2594298;36;20438;-74
2021/08/19 11:03:43;;;;;;;1.73;1.00;;;;;;;21.96;53.16;96634.66;2594410;54;21187;-74
2021/08/19 11:06:18;;;;;;;1.80;0.93;;;;;;;22.05;53.29;96634.44;2558025;54;2004235;-74
2021/08/19 11:08:54;;;;;;;3.90;1.27;;;;;;;21.38;52.96;96631.41;2594479;31;20886;-74
2021/08/19 11:11:36;;;;;;;2.67;1.23;;;;;;;22.16;52.87;96633.19;2594712;39;20801;-73
2021/08/19 11:14:12;;;;;;;1.10;1.00;;;;;;;22.24;52.90;96616.31;2593407;36;21012;-73
2021/08/19 11:16:45;;;;;;;1.40;1.10;;;;;;;22.42;53.11;96622.19;2594792;54;20453;-73
2021/08/19 11:19:18;;;;;;;1.80;1.10;;;;;;;22.48;52.90;96624.16;2595280;36;21012;-74
2021/08/19 11:21:56;;;;;;;1.33;1.10;;;;;;;22.16;53.31;96625.19;2596293;54;21058;-73
2021/08/19 11:24:27;;;;;;;1.70;1.00;;;;;;;22.08;52.73;96627.91;2595618;36;20464;-74
2021/08/19 11:27:01;;;;;;;1.80;1.33;;;;;;;21.61;52.53;96619.00;2596662;54;20418;-73
2021/08/19 11:29:35;;;;;;;1.97;1.10;;;;;;;21.27;53.69;96621.97;2595890;36;20842;-74
2021/08/19 11:32:11;;;;;;;3.60;1.03;;;;;;;21.05;56.38;96627.03;2595609;54;20446;-74
2021/08/19 11:34:47;;;;;;;1.50;1.20;;;;;;;21.61;55.35;96628.84;2596165;36;20419;-74
2021/08/19 11:37:31;;;;;;;1.97;1.20;;;;;;;22.33;54.60;96620.59;2596132;54;20371;-74
2021/08/19 11:40:03;;;;;;;2.30;1.40;;;;;;;22.14;55.37;96632.53;2594134;31;20410;-74
2021/08/19 11:42:34;;;;;;;2.00;1.43;;;;;;;22.10;53.85;96632.06;2594719;54;20407;-75
2021/08/19 11:45:17;;;;;;;2.83;1.63;;;;;;;21.96;54.66;96624.00;2595412;36;20925;-74
2021/08/19 11:47:47;;;;;;;2.40;1.20;;;;;;;21.42;56.25;96632.72;2594788;54;21107;-74
2021/08/19 11:50:17;;;;;;;2.73;1.70;;;;;;;22.26;53.87;96624.97;2594611;36;20422;-74
2021/08/19 11:52:50;;;;;;;4.87;1.60;;;;;;;22.73;53.86;96620.44;2595099;39;20771;-74
2021/08/19 11:55:29;;;;;;;1.83;1.50;;;;;;;22.92;53.20;96617.22;2595878;36;20755;-72